sensor_id;sensor_type;location;lat;lon;timestamp;temperature;humidity
6375;DHT22;35400;45.472;-122.822;2022-10-15T00:01:15;26.70;66.50
6375;DHT22;35400;45.472;-122.822;2022-10-15T00:03:43;26.60;66.50
6375;DHT22;35400;45.472;-122.822;2022-10-15T00:06:12;26.50;65.90
6375;DHT22;35400;45.472;-122.822;2022-10-15T00:08:40;26.50;66.90
6375;DHT22;35400;45.472;-122.822;2022-10-15T00:11:13;26.40;66.30
6375;DHT22;35400;45.472;-122.822;2022-10-15T00:13:41;26.40;68.10
6375;DHT22;35400;45.472;-122.822;2022-10-15T00:16:11;26.30;68.20
6375;DHT22;35400;45.472;-122.822;2022-10-15T00:18:39;26.30;67.80
6375;DHT22;35400;45.472;-122.822;2022-10-15T00:21:08;26.30;67.50
6375;DHT22;35400;45.472;-122.822;2022-10-15T00:23:36;26.20;67.50
6375;DHT22;35400;45.472;-122.822;2022-10-15T00:26:11;26.20;67.80
6375;DHT22;35400;45.472;-122.822;2022-10-15T00:28:38;26.20;68.40
6375;DHT22;35400;45.472;-122.822;2022-10-15T00:31:08;26.10;68.30
6375;DHT22;35400;45.472;-122.822;2022-10-15T00:33:36;26.00;68.60
6375;DHT22;35400;45.472;-122.822;2022-10-15T00:36:09;26.00;67.80
6375;DHT22;35400;45.472;-122.822;2022-10-15T00:38:37;25.90;68.30
6375;DHT22;35400;45.472;-122.822;2022-10-15T00:41:06;25.90;68.70
6375;DHT22;35400;45.472;-122.822;2022-10-15T00:43:43;25.80;68.90
6375;DHT22;35400;45.472;-122.822;2022-10-15T00:46:37;25.80;69.70
6375;DHT22;35400;45.472;-122.822;2022-10-15T00:49:27;25.70;70.50
6375;DHT22;35400;45.472;-122.822;2022-10-15T00:52:06;25.60;70.60
6375;DHT22;35400;45.472;-122.822;2022-10-15T00:54:46;25.50;70.60
6375;DHT22;35400;45.472;-122.822;2022-10-15T00:57:15;25.40;70.60
6375;DHT22;35400;45.472;-122.822;2022-10-15T00:59:48;25.40;71.10
6375;DHT22;35400;45.472;-122.822;2022-10-15T01:02:18;25.30;72.30
6375;DHT22;35400;45.472;-122.822;2022-10-15T01:04:45;25.20;71.80
6375;DHT22;35400;45.472;-122.822;2022-10-15T01:07:13;25.10;72.20
6375;DHT22;35400;45.472;-122.822;2022-10-15T01:09:40;25.00;72.80
6375;DHT22;35400;45.472;-122.822;2022-10-15T01:12:19;24.90;73.30
6375;DHT22;35400;45.472;-122.822;2022-10-15T01:15:08;24.70;73.70
6375;DHT22;35400;45.472;-122.822;2022-10-15T01:17:53;24.60;74.30
6375;DHT22;35400;45.472;-122.822;2022-10-15T01:39:33;23.30;78.40
6375;DHT22;35400;45.472;-122.822;2022-10-15T01:42:06;23.20;78.70
6375;DHT22;35400;45.472;-122.822;2022-10-15T01:44:41;23.00;78.90
6375;DHT22;35400;45.472;-122.822;2022-10-15T01:47:29;22.90;79.10
6375;DHT22;35400;45.472;-122.822;2022-10-15T01:49:59;22.80;79.40
6375;DHT22;35400;45.472;-122.822;2022-10-15T01:52:33;22.70;79.60
6375;DHT22;35400;45.472;-122.822;2022-10-15T01:55:05;22.60;79.80
6375;DHT22;35400;45.472;-122.822;2022-10-15T01:57:36;22.40;79.90
6375;DHT22;35400;45.472;-122.822;2022-10-15T02:00:05;22.30;80.10
6375;DHT22;35400;45.472;-122.822;2022-10-15T02:02:39;22.20;80.20
6375;DHT22;35400;45.472;-122.822;2022-10-15T02:05:23;22.10;80.30
6375;DHT22;35400;45.472;-122.822;2022-10-15T02:18:49;21.60;81.40
6375;DHT22;35400;45.472;-122.822;2022-10-15T02:21:20;21.50;81.50
6375;DHT22;35400;45.472;-122.822;2022-10-15T02:23:55;21.40;81.70
6375;DHT22;35400;45.472;-122.822;2022-10-15T02:26:26;21.30;81.80
6375;DHT22;35400;45.472;-122.822;2022-10-15T02:28:56;21.20;82.20
6375;DHT22;35400;45.472;-122.822;2022-10-15T02:31:26;21.10;82.50
6375;DHT22;35400;45.472;-122.822;2022-10-15T02:33:59;20.90;82.50
6375;DHT22;35400;45.472;-122.822;2022-10-15T02:36:28;20.90;82.70
6375;DHT22;35400;45.472;-122.822;2022-10-15T02:38:57;20.80;82.90
6375;DHT22;35400;45.472;-122.822;2022-10-15T02:41:27;20.70;83.50
6375;DHT22;35400;45.472;-122.822;2022-10-15T02:43:55;20.60;83.70
6375;DHT22;35400;45.472;-122.822;2022-10-15T02:46:22;20.50;83.70
6375;DHT22;35400;45.472;-122.822;2022-10-15T02:48:49;20.40;83.90
6375;DHT22;35400;45.472;-122.822;2022-10-15T02:51:17;20.30;83.90
6375;DHT22;35400;45.472;-122.822;2022-10-15T02:53:44;20.20;84.20
6375;DHT22;35400;45.472;-122.822;2022-10-15T02:56:10;20.20;84.40
6375;DHT22;35400;45.472;-122.822;2022-10-15T02:58:37;20.10;84.40
6375;DHT22;35400;45.472;-122.822;2022-10-15T03:01:04;20.00;84.40
6375;DHT22;35400;45.472;-122.822;2022-10-15T03:03:32;20.00;84.60
6375;DHT22;35400;45.472;-122.822;2022-10-15T03:05:59;19.90;84.60
6375;DHT22;35400;45.472;-122.822;2022-10-15T03:08:27;19.90;84.70
6375;DHT22;35400;45.472;-122.822;2022-10-15T03:10:54;19.80;84.80
6375;DHT22;35400;45.472;-122.822;2022-10-15T03:13:21;19.70;85.00
6375;DHT22;35400;45.472;-122.822;2022-10-15T03:15:51;19.70;85.10
6375;DHT22;35400;45.472;-122.822;2022-10-15T03:18:20;19.70;85.30
6375;DHT22;35400;45.472;-122.822;2022-10-15T03:20:57;19.60;85.30
6375;DHT22;35400;45.472;-122.822;2022-10-15T03:23:24;19.50;85.30
6375;DHT22;35400;45.472;-122.822;2022-10-15T03:26:00;19.50;85.40
6375;DHT22;35400;45.472;-122.822;2022-10-15T03:28:27;19.50;85.40
6375;DHT22;35400;45.472;-122.822;2022-10-15T03:30:54;19.40;85.30
6375;DHT22;35400;45.472;-122.822;2022-10-15T03:33:21;19.40;85.40
6375;DHT22;35400;45.472;-122.822;2022-10-15T03:35:48;19.40;85.60
6375;DHT22;35400;45.472;-122.822;2022-10-15T03:38:15;19.30;85.80
6375;DHT22;35400;45.472;-122.822;2022-10-15T03:40:44;19.30;86.00
6375;DHT22;35400;45.472;-122.822;2022-10-15T03:43:24;19.20;86.10
6375;DHT22;35400;45.472;-122.822;2022-10-15T03:45:52;19.20;86.20
6375;DHT22;35400;45.472;-122.822;2022-10-15T03:48:22;19.10;86.20
6375;DHT22;35400;45.472;-122.822;2022-10-15T03:50:49;19.10;86.30
6375;DHT22;35400;45.472;-122.822;2022-10-15T03:53:16;19.00;86.20
6375;DHT22;35400;45.472;-122.822;2022-10-15T03:55:42;19.00;86.20
6375;DHT22;35400;45.472;-122.822;2022-10-15T03:58:09;18.90;86.20
6375;DHT22;35400;45.472;-122.822;2022-10-15T04:00:43;18.90;86.20
6375;DHT22;35400;45.472;-122.822;2022-10-15T04:03:10;18.90;86.20
6375;DHT22;35400;45.472;-122.822;2022-10-15T04:05:37;18.80;86.30
6375;DHT22;35400;45.472;-122.822;2022-10-15T04:08:07;18.80;86.90
6375;DHT22;35400;45.472;-122.822;2022-10-15T04:10:38;18.80;87.30
6375;DHT22;35400;45.472;-122.822;2022-10-15T04:13:06;18.80;87.40
6375;DHT22;35400;45.472;-122.822;2022-10-15T04:15:34;18.70;87.10
6375;DHT22;35400;45.472;-122.822;2022-10-15T04:18:07;18.70;87.00
6375;DHT22;35400;45.472;-122.822;2022-10-15T04:20:36;18.60;86.90
6375;DHT22;35400;45.472;-122.822;2022-10-15T04:23:15;18.60;87.30
6375;DHT22;35400;45.472;-122.822;2022-10-15T04:25:58;18.60;87.00
6375;DHT22;35400;45.472;-122.822;2022-10-15T04:28:26;18.50;86.50
6375;DHT22;35400;45.472;-122.822;2022-10-15T04:30:57;18.50;86.50
6375;DHT22;35400;45.472;-122.822;2022-10-15T04:33:25;18.40;86.30
6375;DHT22;35400;45.472;-122.822;2022-10-15T04:36:05;18.40;86.20
6375;DHT22;35400;45.472;-122.822;2022-10-15T04:38:55;18.40;86.20
6375;DHT22;35400;45.472;-122.822;2022-10-15T04:41:37;18.30;86.40
6375;DHT22;35400;45.472;-122.822;2022-10-15T04:44:07;18.30;86.70
6375;DHT22;35400;45.472;-122.822;2022-10-15T04:46:36;18.20;87.00
6375;DHT22;35400;45.472;-122.822;2022-10-15T04:49:18;18.20;86.90
6375;DHT22;35400;45.472;-122.822;2022-10-15T04:51:45;18.10;86.10
6375;DHT22;35400;45.472;-122.822;2022-10-15T04:54:16;18.10;85.80
6375;DHT22;35400;45.472;-122.822;2022-10-15T04:56:58;18.20;85.80
6375;DHT22;35400;45.472;-122.822;2022-10-15T04:59:24;18.20;85.60
6375;DHT22;35400;45.472;-122.822;2022-10-15T05:02:10;18.20;85.50
6375;DHT22;35400;45.472;-122.822;2022-10-15T05:04:37;18.20;85.70
6375;DHT22;35400;45.472;-122.822;2022-10-15T05:07:04;18.20;85.70
6375;DHT22;35400;45.472;-122.822;2022-10-15T05:09:31;18.20;85.70
6375;DHT22;35400;45.472;-122.822;2022-10-15T05:11:59;18.10;85.50
6375;DHT22;35400;45.472;-122.822;2022-10-15T05:14:27;18.10;85.50
6375;DHT22;35400;45.472;-122.822;2022-10-15T05:17:30;18.10;85.50
6375;DHT22;35400;45.472;-122.822;2022-10-15T05:19:58;18.00;85.50
6375;DHT22;35400;45.472;-122.822;2022-10-15T05:22:27;18.00;85.70
6375;DHT22;35400;45.472;-122.822;2022-10-15T05:24:58;17.90;85.40
6375;DHT22;35400;45.472;-122.822;2022-10-15T05:27:30;17.90;85.40
6375;DHT22;35400;45.472;-122.822;2022-10-15T05:29:58;17.80;85.30
6375;DHT22;35400;45.472;-122.822;2022-10-15T05:32:33;17.80;85.20
6375;DHT22;35400;45.472;-122.822;2022-10-15T05:35:00;17.80;85.30
6375;DHT22;35400;45.472;-122.822;2022-10-15T05:37:41;17.70;85.40
6375;DHT22;35400;45.472;-122.822;2022-10-15T05:40:08;17.70;85.60
6375;DHT22;35400;45.472;-122.822;2022-10-15T05:42:35;17.70;85.70
6375;DHT22;35400;45.472;-122.822;2022-10-15T05:45:02;17.60;86.60
6375;DHT22;35400;45.472;-122.822;2022-10-15T05:47:29;17.60;86.10
6375;DHT22;35400;45.472;-122.822;2022-10-15T05:50:11;17.50;86.30
6375;DHT22;35400;45.472;-122.822;2022-10-15T05:52:43;17.40;86.50
6375;DHT22;35400;45.472;-122.822;2022-10-15T05:55:32;17.40;86.80
6375;DHT22;35400;45.472;-122.822;2022-10-15T05:58:03;17.30;87.00
6375;DHT22;35400;45.472;-122.822;2022-10-15T06:00:30;17.30;87.20
6375;DHT22;35400;45.472;-122.822;2022-10-15T06:02:58;17.20;87.40
6375;DHT22;35400;45.472;-122.822;2022-10-15T06:05:25;17.10;87.70
6375;DHT22;35400;45.472;-122.822;2022-10-15T06:07:52;17.10;87.90
6375;DHT22;35400;45.472;-122.822;2022-10-15T06:10:19;17.00;88.30
6375;DHT22;35400;45.472;-122.822;2022-10-15T06:12:49;17.00;88.70
6375;DHT22;35400;45.472;-122.822;2022-10-15T06:15:17;16.90;88.80
6375;DHT22;35400;45.472;-122.822;2022-10-15T06:17:44;16.80;88.90
6375;DHT22;35400;45.472;-122.822;2022-10-15T06:20:12;16.80;89.10
6375;DHT22;35400;45.472;-122.822;2022-10-15T06:22:38;16.70;89.30
6375;DHT22;35400;45.472;-122.822;2022-10-15T06:25:06;16.60;89.30
6375;DHT22;35400;45.472;-122.822;2022-10-15T06:27:33;16.60;89.90
6375;DHT22;35400;45.472;-122.822;2022-10-15T06:30:00;16.50;89.90
6375;DHT22;35400;45.472;-122.822;2022-10-15T06:32:26;16.50;90.10
6375;DHT22;35400;45.472;-122.822;2022-10-15T06:34:53;16.40;90.10
6375;DHT22;35400;45.472;-122.822;2022-10-15T06:37:20;16.30;90.10
6375;DHT22;35400;45.472;-122.822;2022-10-15T06:39:47;16.30;90.30
6375;DHT22;35400;45.472;-122.822;2022-10-15T06:42:14;16.20;90.30
6375;DHT22;35400;45.472;-122.822;2022-10-15T06:44:40;16.20;90.50
6375;DHT22;35400;45.472;-122.822;2022-10-15T06:47:08;16.10;90.60
6375;DHT22;35400;45.472;-122.822;2022-10-15T06:49:34;16.00;90.70
6375;DHT22;35400;45.472;-122.822;2022-10-15T06:52:01;16.00;90.80
6375;DHT22;35400;45.472;-122.822;2022-10-15T06:54:28;15.90;90.90
6375;DHT22;35400;45.472;-122.822;2022-10-15T06:56:55;15.80;90.90
6375;DHT22;35400;45.472;-122.822;2022-10-15T06:59:22;15.80;91.40
6375;DHT22;35400;45.472;-122.822;2022-10-15T07:01:48;15.70;91.10
6375;DHT22;35400;45.472;-122.822;2022-10-15T07:04:15;15.70;91.20
6375;DHT22;35400;45.472;-122.822;2022-10-15T07:06:42;15.60;91.20
6375;DHT22;35400;45.472;-122.822;2022-10-15T07:09:09;15.60;91.60
6375;DHT22;35400;45.472;-122.822;2022-10-15T07:11:35;15.50;91.40
6375;DHT22;35400;45.472;-122.822;2022-10-15T07:14:02;15.50;91.60
6375;DHT22;35400;45.472;-122.822;2022-10-15T07:16:31;15.40;91.60
6375;DHT22;35400;45.472;-122.822;2022-10-15T07:18:58;15.40;91.70
6375;DHT22;35400;45.472;-122.822;2022-10-15T07:21:24;15.30;91.80
6375;DHT22;35400;45.472;-122.822;2022-10-15T07:23:51;15.30;91.90
6375;DHT22;35400;45.472;-122.822;2022-10-15T07:26:18;15.20;91.90
6375;DHT22;35400;45.472;-122.822;2022-10-15T07:28:45;15.20;92.10
6375;DHT22;35400;45.472;-122.822;2022-10-15T07:31:12;15.20;92.70
6375;DHT22;35400;45.472;-122.822;2022-10-15T07:33:41;15.10;92.50
6375;DHT22;35400;45.472;-122.822;2022-10-15T07:36:10;15.00;92.60
6375;DHT22;35400;45.472;-122.822;2022-10-15T07:38:38;15.00;92.70
6375;DHT22;35400;45.472;-122.822;2022-10-15T07:41:09;14.90;93.20
6375;DHT22;35400;45.472;-122.822;2022-10-15T07:43:42;14.80;92.90
6375;DHT22;35400;45.472;-122.822;2022-10-15T07:46:09;14.80;93.10
6375;DHT22;35400;45.472;-122.822;2022-10-15T07:48:36;14.70;93.10
6375;DHT22;35400;45.472;-122.822;2022-10-15T07:51:05;14.70;93.20
6375;DHT22;35400;45.472;-122.822;2022-10-15T07:53:33;14.60;93.20
6375;DHT22;35400;45.472;-122.822;2022-10-15T07:56:02;14.60;93.40
6375;DHT22;35400;45.472;-122.822;2022-10-15T07:58:33;14.50;93.40
6375;DHT22;35400;45.472;-122.822;2022-10-15T08:01:01;14.50;93.50
6375;DHT22;35400;45.472;-122.822;2022-10-15T08:03:29;14.50;93.60
6375;DHT22;35400;45.472;-122.822;2022-10-15T08:06:00;14.40;93.70
6375;DHT22;35400;45.472;-122.822;2022-10-15T08:08:28;14.40;93.80
6375;DHT22;35400;45.472;-122.822;2022-10-15T08:10:55;14.40;93.90
6375;DHT22;35400;45.472;-122.822;2022-10-15T08:13:23;14.30;93.90
6375;DHT22;35400;45.472;-122.822;2022-10-15T08:15:54;14.30;94.10
6375;DHT22;35400;45.472;-122.822;2022-10-15T08:18:20;14.20;94.20
6375;DHT22;35400;45.472;-122.822;2022-10-15T08:20:47;14.20;94.30
6375;DHT22;35400;45.472;-122.822;2022-10-15T08:23:15;14.20;94.40
6375;DHT22;35400;45.472;-122.822;2022-10-15T08:25:43;14.10;94.40
6375;DHT22;35400;45.472;-122.822;2022-10-15T08:28:11;14.10;94.50
6375;DHT22;35400;45.472;-122.822;2022-10-15T08:30:38;14.10;94.60
6375;DHT22;35400;45.472;-122.822;2022-10-15T08:33:11;14.10;94.70
6375;DHT22;35400;45.472;-122.822;2022-10-15T08:35:40;14.00;94.80
6375;DHT22;35400;45.472;-122.822;2022-10-15T08:38:10;14.00;94.80
6375;DHT22;35400;45.472;-122.822;2022-10-15T08:40:37;14.00;94.90
6375;DHT22;35400;45.472;-122.822;2022-10-15T08:43:35;14.00;94.90
6375;DHT22;35400;45.472;-122.822;2022-10-15T08:46:08;14.00;94.90
6375;DHT22;35400;45.472;-122.822;2022-10-15T08:48:43;14.00;94.90
6375;DHT22;35400;45.472;-122.822;2022-10-15T08:53:43;14.00;95.10
6375;DHT22;35400;45.472;-122.822;2022-10-15T08:56:38;13.90;95.00
6375;DHT22;35400;45.472;-122.822;2022-10-15T09:04:47;13.90;95.30
6375;DHT22;35400;45.472;-122.822;2022-10-15T09:07:43;13.90;95.40
6375;DHT22;35400;45.472;-122.822;2022-10-15T09:15:46;13.80;95.70
6375;DHT22;35400;45.472;-122.822;2022-10-15T09:18:22;13.70;95.70
6375;DHT22;35400;45.472;-122.822;2022-10-15T09:20:49;13.70;95.80
6375;DHT22;35400;45.472;-122.822;2022-10-15T09:23:22;13.60;95.90
6375;DHT22;35400;45.472;-122.822;2022-10-15T09:26:22;13.60;96.20
6375;DHT22;35400;45.472;-122.822;2022-10-15T09:35:11;13.40;96.60
6375;DHT22;35400;45.472;-122.822;2022-10-15T09:40:38;13.30;97.00
6375;DHT22;35400;45.472;-122.822;2022-10-15T09:43:09;13.30;97.10
6375;DHT22;35400;45.472;-122.822;2022-10-15T09:45:38;13.20;97.10
6375;DHT22;35400;45.472;-122.822;2022-10-15T09:48:16;13.20;97.20
6375;DHT22;35400;45.472;-122.822;2022-10-15T09:50:59;13.10;97.30
6375;DHT22;35400;45.472;-122.822;2022-10-15T09:58:57;13.00;97.60
6375;DHT22;35400;45.472;-122.822;2022-10-15T10:01:26;13.00;97.60
6375;DHT22;35400;45.472;-122.822;2022-10-15T10:04:16;13.00;97.80
6375;DHT22;35400;45.472;-122.822;2022-10-15T10:06:53;12.90;97.80
6375;DHT22;35400;45.472;-122.822;2022-10-15T10:09:30;12.90;98.10
6375;DHT22;35400;45.472;-122.822;2022-10-15T10:12:04;12.80;98.20
6375;DHT22;35400;45.472;-122.822;2022-10-15T10:14:34;12.80;98.30
6375;DHT22;35400;45.472;-122.822;2022-10-15T10:17:19;12.70;98.40
6375;DHT22;35400;45.472;-122.822;2022-10-15T10:28:16;12.60;99.00
6375;DHT22;35400;45.472;-122.822;2022-10-15T10:33:29;12.50;99.20
6375;DHT22;35400;45.472;-122.822;2022-10-15T10:35:56;12.50;99.70
6375;DHT22;35400;45.472;-122.822;2022-10-15T10:38:54;12.40;99.50
6375;DHT22;35400;45.472;-122.822;2022-10-15T10:41:22;12.40;99.70
6375;DHT22;35400;45.472;-122.822;2022-10-15T10:43:53;12.40;99.90
6375;DHT22;35400;45.472;-122.822;2022-10-15T10:46:22;12.30;99.90
6375;DHT22;35400;45.472;-122.822;2022-10-15T10:48:51;12.30;99.90
6375;DHT22;35400;45.472;-122.822;2022-10-15T10:51:23;12.20;99.90
6375;DHT22;35400;45.472;-122.822;2022-10-15T10:53:56;12.20;99.90
6375;DHT22;35400;45.472;-122.822;2022-10-15T10:56:44;12.20;99.90
6375;DHT22;35400;45.472;-122.822;2022-10-15T10:59:28;12.10;99.90
6375;DHT22;35400;45.472;-122.822;2022-10-15T11:01:56;12.10;99.90
6375;DHT22;35400;45.472;-122.822;2022-10-15T11:04:26;12.00;99.90
6375;DHT22;35400;45.472;-122.822;2022-10-15T11:07:29;12.00;99.90
6375;DHT22;35400;45.472;-122.822;2022-10-15T11:10:21;11.90;99.90
6375;DHT22;35400;45.472;-122.822;2022-10-15T11:15:47;11.90;99.90
6375;DHT22;35400;45.472;-122.822;2022-10-15T11:21:39;11.80;99.90
6375;DHT22;35400;45.472;-122.822;2022-10-15T11:24:19;11.70;99.90
6375;DHT22;35400;45.472;-122.822;2022-10-15T11:27:00;11.70;99.90
6375;DHT22;35400;45.472;-122.822;2022-10-15T11:29:50;11.70;99.90
6375;DHT22;35400;45.472;-122.822;2022-10-15T11:35:51;11.60;99.90
6375;DHT22;35400;45.472;-122.822;2022-10-15T11:41:43;11.50;99.90
6375;DHT22;35400;45.472;-122.822;2022-10-15T11:52:28;11.40;99.90
6375;DHT22;35400;45.472;-122.822;2022-10-15T11:55:03;11.40;99.90
6375;DHT22;35400;45.472;-122.822;2022-10-15T11:57:34;11.30;99.90
6375;DHT22;35400;45.472;-122.822;2022-10-15T12:02:47;11.30;99.90
6375;DHT22;35400;45.472;-122.822;2022-10-15T12:05:33;11.20;99.90
6375;DHT22;35400;45.472;-122.822;2022-10-15T12:08:00;11.20;99.90
6375;DHT22;35400;45.472;-122.822;2022-10-15T12:10:58;11.10;99.90
6375;DHT22;35400;45.472;-122.822;2022-10-15T12:13:49;11.10;99.90
6375;DHT22;35400;45.472;-122.822;2022-10-15T12:16:25;11.10;99.90
6375;DHT22;35400;45.472;-122.822;2022-10-15T12:19:07;11.10;99.90
6375;DHT22;35400;45.472;-122.822;2022-10-15T12:21:38;11.10;99.90
6375;DHT22;35400;45.472;-122.822;2022-10-15T12:29:52;11.00;99.90
6375;DHT22;35400;45.472;-122.822;2022-10-15T12:32:39;10.90;99.90
6375;DHT22;35400;45.472;-122.822;2022-10-15T12:35:33;10.90;99.90
6375;DHT22;35400;45.472;-122.822;2022-10-15T12:38:33;10.90;99.90
6375;DHT22;35400;45.472;-122.822;2022-10-15T12:41:11;10.90;99.90
6375;DHT22;35400;45.472;-122.822;2022-10-15T12:43:51;10.80;99.90
6375;DHT22;35400;45.472;-122.822;2022-10-15T12:46:19;10.80;99.90
6375;DHT22;35400;45.472;-122.822;2022-10-15T12:48:46;10.80;99.90
6375;DHT22;35400;45.472;-122.822;2022-10-15T12:53:44;10.80;99.90
6375;DHT22;35400;45.472;-122.822;2022-10-15T12:56:24;10.70;99.90
6375;DHT22;35400;45.472;-122.822;2022-10-15T12:58:55;10.70;99.90
6375;DHT22;35400;45.472;-122.822;2022-10-15T13:11:53;10.60;99.90
6375;DHT22;35400;45.472;-122.822;2022-10-15T13:14:37;10.60;99.90
6375;DHT22;35400;45.472;-122.822;2022-10-15T13:17:15;10.60;99.90
6375;DHT22;35400;45.472;-122.822;2022-10-15T13:19:58;10.60;99.90
6375;DHT22;35400;45.472;-122.822;2022-10-15T13:22:28;10.50;99.90
6375;DHT22;35400;45.472;-122.822;2022-10-15T13:24:55;10.50;99.90
6375;DHT22;35400;45.472;-122.822;2022-10-15T13:30:03;10.50;99.90
6375;DHT22;35400;45.472;-122.822;2022-10-15T13:32:33;10.50;99.90
6375;DHT22;35400;45.472;-122.822;2022-10-15T13:35:08;10.50;99.90
6375;DHT22;35400;45.472;-122.822;2022-10-15T13:37:37;10.50;99.90
6375;DHT22;35400;45.472;-122.822;2022-10-15T13:40:06;10.50;99.90
6375;DHT22;35400;45.472;-122.822;2022-10-15T13:42:33;10.50;99.90
6375;DHT22;35400;45.472;-122.822;2022-10-15T13:45:19;10.50;99.90
6375;DHT22;35400;45.472;-122.822;2022-10-15T13:47:51;10.50;99.90
6375;DHT22;35400;45.472;-122.822;2022-10-15T13:50:36;10.40;99.90
6375;DHT22;35400;45.472;-122.822;2022-10-15T13:55:44;10.40;99.90
6375;DHT22;35400;45.472;-122.822;2022-10-15T14:01:09;10.40;99.90
6375;DHT22;35400;45.472;-122.822;2022-10-15T14:03:37;10.40;99.90
6375;DHT22;35400;45.472;-122.822;2022-10-15T14:08:42;10.40;99.90
6375;DHT22;35400;45.472;-122.822;2022-10-15T14:11:12;10.40;99.90
6375;DHT22;35400;45.472;-122.822;2022-10-15T14:13:49;10.40;99.90
6375;DHT22;35400;45.472;-122.822;2022-10-15T14:16:21;10.40;99.90
6375;DHT22;35400;45.472;-122.822;2022-10-15T14:18:52;10.30;99.90
6375;DHT22;35400;45.472;-122.822;2022-10-15T14:21:22;10.30;99.90
6375;DHT22;35400;45.472;-122.822;2022-10-15T14:24:18;10.30;99.90
6375;DHT22;35400;45.472;-122.822;2022-10-15T14:26:46;10.30;99.90
6375;DHT22;35400;45.472;-122.822;2022-10-15T14:29:18;10.30;99.90
6375;DHT22;35400;45.472;-122.822;2022-10-15T14:31:47;10.30;99.90
6375;DHT22;35400;45.472;-122.822;2022-10-15T14:34:47;10.30;99.90
6375;DHT22;35400;45.472;-122.822;2022-10-15T14:40:22;10.30;99.90
6375;DHT22;35400;45.472;-122.822;2022-10-15T14:45:26;10.30;99.90
6375;DHT22;35400;45.472;-122.822;2022-10-15T14:47:58;10.40;99.90
6375;DHT22;35400;45.472;-122.822;2022-10-15T14:50:31;10.30;99.90
6375;DHT22;35400;45.472;-122.822;2022-10-15T14:53:04;10.40;99.90
6375;DHT22;35400;45.472;-122.822;2022-10-15T14:55:37;10.40;99.90
6375;DHT22;35400;45.472;-122.822;2022-10-15T14:58:09;10.40;99.90
6375;DHT22;35400;45.472;-122.822;2022-10-15T15:00:44;10.50;99.90
6375;DHT22;35400;45.472;-122.822;2022-10-15T15:03:21;10.50;99.90
6375;DHT22;35400;45.472;-122.822;2022-10-15T15:05:53;10.50;99.90
6375;DHT22;35400;45.472;-122.822;2022-10-15T15:08:24;10.60;99.90
6375;DHT22;35400;45.472;-122.822;2022-10-15T15:10:54;10.60;99.90
6375;DHT22;35400;45.472;-122.822;2022-10-15T15:13:23;10.70;99.90
6375;DHT22;35400;45.472;-122.822;2022-10-15T15:15:52;10.70;99.90
6375;DHT22;35400;45.472;-122.822;2022-10-15T15:18:19;10.80;99.90
6375;DHT22;35400;45.472;-122.822;2022-10-15T15:20:47;10.80;99.90
6375;DHT22;35400;45.472;-122.822;2022-10-15T15:23:24;10.90;99.90
6375;DHT22;35400;45.472;-122.822;2022-10-15T15:25:54;11.00;99.90
6375;DHT22;35400;45.472;-122.822;2022-10-15T15:28:22;11.00;99.90
6375;DHT22;35400;45.472;-122.822;2022-10-15T15:30:58;11.10;99.90
6375;DHT22;35400;45.472;-122.822;2022-10-15T15:33:26;11.20;99.90
6375;DHT22;35400;45.472;-122.822;2022-10-15T15:38:31;11.40;99.90
6375;DHT22;35400;45.472;-122.822;2022-10-15T15:41:15;11.60;99.90
6375;DHT22;35400;45.472;-122.822;2022-10-15T15:43:42;11.70;99.90
6375;DHT22;35400;45.472;-122.822;2022-10-15T15:46:09;11.80;99.90
6375;DHT22;35400;45.472;-122.822;2022-10-15T15:48:36;12.00;99.90
6375;DHT22;35400;45.472;-122.822;2022-10-15T15:51:27;12.10;99.90
6375;DHT22;35400;45.472;-122.822;2022-10-15T15:53:52;12.30;99.90
6375;DHT22;35400;45.472;-122.822;2022-10-15T15:56:19;12.50;99.90
6375;DHT22;35400;45.472;-122.822;2022-10-15T15:58:46;12.60;99.90
6375;DHT22;35400;45.472;-122.822;2022-10-15T16:01:18;12.80;99.90
6375;DHT22;35400;45.472;-122.822;2022-10-15T16:03:46;12.90;99.90
6375;DHT22;35400;45.472;-122.822;2022-10-15T16:06:12;13.10;99.90
6375;DHT22;35400;45.472;-122.822;2022-10-15T16:08:39;13.30;99.90
6375;DHT22;35400;45.472;-122.822;2022-10-15T16:11:06;13.60;99.90
6375;DHT22;35400;45.472;-122.822;2022-10-15T16:13:33;14.00;99.90
6375;DHT22;35400;45.472;-122.822;2022-10-15T16:16:00;14.50;99.90
6375;DHT22;35400;45.472;-122.822;2022-10-15T16:18:27;14.90;99.90
6375;DHT22;35400;45.472;-122.822;2022-10-15T16:20:54;15.30;99.90
6375;DHT22;35400;45.472;-122.822;2022-10-15T16:23:21;15.50;99.90
6375;DHT22;35400;45.472;-122.822;2022-10-15T16:25:47;15.90;99.90
6375;DHT22;35400;45.472;-122.822;2022-10-15T16:28:14;16.30;99.90
6375;DHT22;35400;45.472;-122.822;2022-10-15T16:30:41;16.70;99.90
6375;DHT22;35400;45.472;-122.822;2022-10-15T16:33:08;17.30;99.90
6375;DHT22;35400;45.472;-122.822;2022-10-15T16:35:35;17.80;99.90
6375;DHT22;35400;45.472;-122.822;2022-10-15T16:38:01;18.30;99.90
6375;DHT22;35400;45.472;-122.822;2022-10-15T16:40:28;18.60;99.90
6375;DHT22;35400;45.472;-122.822;2022-10-15T16:42:55;18.90;99.90
6375;DHT22;35400;45.472;-122.822;2022-10-15T16:45:22;19.20;99.00
6375;DHT22;35400;45.472;-122.822;2022-10-15T16:47:49;19.40;98.20
6375;DHT22;35400;45.472;-122.822;2022-10-15T16:50:16;19.70;97.20
6375;DHT22;35400;45.472;-122.822;2022-10-15T16:52:43;19.90;96.50
6375;DHT22;35400;45.472;-122.822;2022-10-15T16:55:10;20.10;95.50
6375;DHT22;35400;45.472;-122.822;2022-10-15T16:57:36;20.30;94.70
6375;DHT22;35400;45.472;-122.822;2022-10-15T17:00:03;20.50;94.10
6375;DHT22;35400;45.472;-122.822;2022-10-15T17:04:57;20.80;92.50
6375;DHT22;35400;45.472;-122.822;2022-10-15T17:07:24;20.90;92.40
6375;DHT22;35400;45.472;-122.822;2022-10-15T17:09:51;21.10;92.00
6375;DHT22;35400;45.472;-122.822;2022-10-15T17:12:18;21.20;90.90
6375;DHT22;35400;45.472;-122.822;2022-10-15T17:14:48;21.40;90.70
6375;DHT22;35400;45.472;-122.822;2022-10-15T17:17:18;21.50;89.90
6375;DHT22;35400;45.472;-122.822;2022-10-15T17:19:46;21.70;88.10
6375;DHT22;35400;45.472;-122.822;2022-10-15T17:22:12;21.80;87.10
6375;DHT22;35400;45.472;-122.822;2022-10-15T17:24:39;22.00;86.60
6375;DHT22;35400;45.472;-122.822;2022-10-15T17:27:06;22.10;85.30
6375;DHT22;35400;45.472;-122.822;2022-10-15T17:29:33;22.20;85.00
6375;DHT22;35400;45.472;-122.822;2022-10-15T17:32:00;22.30;83.50
6375;DHT22;35400;45.472;-122.822;2022-10-15T17:34:28;22.40;83.60
6375;DHT22;35400;45.472;-122.822;2022-10-15T17:36:54;22.50;83.20
6375;DHT22;35400;45.472;-122.822;2022-10-15T17:39:22;22.60;81.90
6375;DHT22;35400;45.472;-122.822;2022-10-15T17:41:49;22.60;82.10
6375;DHT22;35400;45.472;-122.822;2022-10-15T17:44:20;22.70;81.60